sensor_id;sensor_type;location;lat;lon;timestamp;temperature;humidity
68801;SHT31;55784;50.734;7.086;2023-04-25T00:00:23;8.51;78.51
68801;SHT31;55784;50.734;7.086;2023-04-25T00:02:50;8.49;78.84
68801;SHT31;55784;50.734;7.086;2023-04-25T00:05:15;8.44;78.92
68801;SHT31;55784;50.734;7.086;2023-04-25T00:07:41;8.45;78.86
68801;SHT31;55784;50.734;7.086;2023-04-25T00:10:09;8.41;79.06
68801;SHT31;55784;50.734;7.086;2023-04-25T00:12:36;8.36;79.07
68801;SHT31;55784;50.734;7.086;2023-04-25T00:15:02;8.30;79.34
68801;SHT31;55784;50.734;7.086;2023-04-25T00:17:28;8.28;79.54
68801;SHT31;55784;50.734;7.086;2023-04-25T00:19:53;8.27;79.56
68801;SHT31;55784;50.734;7.086;2023-04-25T00:22:19;8.30;79.77
68801;SHT31;55784;50.734;7.086;2023-04-25T00:24:44;8.24;79.82
68801;SHT31;55784;50.734;7.086;2023-04-25T00:27:09;8.18;80.05
68801;SHT31;55784;50.734;7.086;2023-04-25T00:29:35;8.10;80.26
68801;SHT31;55784;50.734;7.086;2023-04-25T00:32:01;8.04;80.38
68801;SHT31;55784;50.734;7.086;2023-04-25T00:34:26;8.03;80.19
68801;SHT31;55784;50.734;7.086;2023-04-25T00:36:52;7.98;80.08
68801;SHT31;55784;50.734;7.086;2023-04-25T00:39:17;7.91;80.20
68801;SHT31;55784;50.734;7.086;2023-04-25T00:41:43;7.84;80.47
68801;SHT31;55784;50.734;7.086;2023-04-25T00:44:09;7.79;80.67
68801;SHT31;55784;50.734;7.086;2023-04-25T00:46:36;7.79;80.78
68801;SHT31;55784;50.734;7.086;2023-04-25T00:49:02;7.79;81.08
68801;SHT31;55784;50.734;7.086;2023-04-25T00:51:27;7.76;81.27
68801;SHT31;55784;50.734;7.086;2023-04-25T00:53:53;7.70;81.11
68801;SHT31;55784;50.734;7.086;2023-04-25T00:56:18;7.66;81.54
68801;SHT31;55784;50.734;7.086;2023-04-25T00:58:45;7.62;81.64
68801;SHT31;55784;50.734;7.086;2023-04-25T01:01:11;7.56;81.69
68801;SHT31;55784;50.734;7.086;2023-04-25T01:03:38;7.51;81.96
68801;SHT31;55784;50.734;7.086;2023-04-25T01:06:08;7.45;82.51
68801;SHT31;55784;50.734;7.086;2023-04-25T01:08:34;7.39;82.74
68801;SHT31;55784;50.734;7.086;2023-04-25T01:10:59;7.35;83.04
68801;SHT31;55784;50.734;7.086;2023-04-25T01:13:24;7.31;83.23
68801;SHT31;55784;50.734;7.086;2023-04-25T01:15:50;7.28;83.56
68801;SHT31;55784;50.734;7.086;2023-04-25T01:18:15;7.21;84.00
68801;SHT31;55784;50.734;7.086;2023-04-25T01:20:42;7.15;84.26
68801;SHT31;55784;50.734;7.086;2023-04-25T01:23:08;7.09;84.57
68801;SHT31;55784;50.734;7.086;2023-04-25T01:25:35;7.04;84.87
68801;SHT31;55784;50.734;7.086;2023-04-25T01:28:00;6.98;85.11
68801;SHT31;55784;50.734;7.086;2023-04-25T01:30:26;6.95;85.14
68801;SHT31;55784;50.734;7.086;2023-04-25T01:32:54;6.97;84.93
68801;SHT31;55784;50.734;7.086;2023-04-25T01:35:20;6.95;84.99
68801;SHT31;55784;50.734;7.086;2023-04-25T01:37:47;6.92;84.84
68801;SHT31;55784;50.734;7.086;2023-04-25T01:40:12;6.88;85.30
68801;SHT31;55784;50.734;7.086;2023-04-25T01:42:41;6.84;85.59
68801;SHT31;55784;50.734;7.086;2023-04-25T01:45:07;6.77;85.76
68801;SHT31;55784;50.734;7.086;2023-04-25T01:47:33;6.71;85.93
68801;SHT31;55784;50.734;7.086;2023-04-25T01:50:06;6.70;85.94
68801;SHT31;55784;50.734;7.086;2023-04-25T01:52:31;6.67;86.02
68801;SHT31;55784;50.734;7.086;2023-04-25T01:54:57;6.60;86.02
68801;SHT31;55784;50.734;7.086;2023-04-25T01:57:24;6.58;86.30
68801;SHT31;55784;50.734;7.086;2023-04-25T01:59:50;6.57;86.41
68801;SHT31;55784;50.734;7.086;2023-04-25T02:02:16;6.56;86.55
68801;SHT31;55784;50.734;7.086;2023-04-25T02:04:41;6.61;86.14
68801;SHT31;55784;50.734;7.086;2023-04-25T02:07:06;6.66;85.87
68801;SHT31;55784;50.734;7.086;2023-04-25T02:09:32;6.66;86.03
68801;SHT31;55784;50.734;7.086;2023-04-25T02:11:57;6.60;86.26
68801;SHT31;55784;50.734;7.086;2023-04-25T02:14:23;6.60;86.34
68801;SHT31;55784;50.734;7.086;2023-04-25T02:16:48;6.57;86.39
68801;SHT31;55784;50.734;7.086;2023-04-25T02:19:14;6.51;86.45
68801;SHT31;55784;50.734;7.086;2023-04-25T02:21:39;6.53;86.56
68801;SHT31;55784;50.734;7.086;2023-04-25T02:24:05;6.49;86.63
68801;SHT31;55784;50.734;7.086;2023-04-25T02:26:31;6.41;86.75
68801;SHT31;55784;50.734;7.086;2023-04-25T02:28:56;6.40;86.89
68801;SHT31;55784;50.734;7.086;2023-04-25T02:31:22;6.41;86.92
68801;SHT31;55784;50.734;7.086;2023-04-25T02:33:47;6.41;86.69
68801;SHT31;55784;50.734;7.086;2023-04-25T02:36:13;6.40;86.61
68801;SHT31;55784;50.734;7.086;2023-04-25T02:38:38;6.39;86.82
68801;SHT31;55784;50.734;7.086;2023-04-25T02:41:04;6.39;86.95
68801;SHT31;55784;50.734;7.086;2023-04-25T02:43:29;6.37;86.87
68801;SHT31;55784;50.734;7.086;2023-04-25T02:45:54;6.39;86.82
68801;SHT31;55784;50.734;7.086;2023-04-25T02:48:20;6.41;86.56
68801;SHT31;55784;50.734;7.086;2023-04-25T02:50:45;6.41;86.59
68801;SHT31;55784;50.734;7.086;2023-04-25T02:53:11;6.44;86.66
68801;SHT31;55784;50.734;7.086;2023-04-25T02:55:36;6.40;86.47
68801;SHT31;55784;50.734;7.086;2023-04-25T02:58:01;6.37;86.73
68801;SHT31;55784;50.734;7.086;2023-04-25T03:00:27;6.36;86.80
68801;SHT31;55784;50.734;7.086;2023-04-25T03:02:52;6.34;86.82
68801;SHT31;55784;50.734;7.086;2023-04-25T03:05:17;6.33;86.84
68801;SHT31;55784;50.734;7.086;2023-04-25T03:07:43;6.36;86.60
68801;SHT31;55784;50.734;7.086;2023-04-25T03:10:10;6.34;86.80
68801;SHT31;55784;50.734;7.086;2023-04-25T03:12:35;6.33;86.96
68801;SHT31;55784;50.734;7.086;2023-04-25T03:15:01;6.30;86.92
68801;SHT31;55784;50.734;7.086;2023-04-25T03:17:26;6.34;86.88
68801;SHT31;55784;50.734;7.086;2023-04-25T03:19:52;6.34;86.75
68801;SHT31;55784;50.734;7.086;2023-04-25T03:22:17;6.36;86.60
68801;SHT31;55784;50.734;7.086;2023-04-25T03:24:43;6.32;86.52
68801;SHT31;55784;50.734;7.086;2023-04-25T03:27:08;6.29;86.69
68801;SHT31;55784;50.734;7.086;2023-04-25T03:29:34;6.22;87.04
68801;SHT31;55784;50.734;7.086;2023-04-25T03:31:59;6.19;87.15
68801;SHT31;55784;50.734;7.086;2023-04-25T03:34:24;6.17;87.23
68801;SHT31;55784;50.734;7.086;2023-04-25T03:36:51;6.15;87.30
68801;SHT31;55784;50.734;7.086;2023-04-25T03:39:16;6.16;87.39
68801;SHT31;55784;50.734;7.086;2023-04-25T03:41:41;6.16;87.20
68801;SHT31;55784;50.734;7.086;2023-04-25T03:44:07;6.19;87.17
68801;SHT31;55784;50.734;7.086;2023-04-25T03:46:32;6.27;87.02
68801;SHT31;55784;50.734;7.086;2023-04-25T03:48:57;6.30;86.81
68801;SHT31;55784;50.734;7.086;2023-04-25T03:51:24;6.33;86.63
68801;SHT31;55784;50.734;7.086;2023-04-25T03:53:50;6.41;86.40
68801;SHT31;55784;50.734;7.086;2023-04-25T03:56:15;6.41;86.26
68801;SHT31;55784;50.734;7.086;2023-04-25T03:58:41;6.47;86.10
68801;SHT31;55784;50.734;7.086;2023-04-25T04:01:06;6.54;86.01
68801;SHT31;55784;50.734;7.086;2023-04-25T04:03:35;6.53;85.76
68801;SHT31;55784;50.734;7.086;2023-04-25T04:06:03;6.56;85.80
68801;SHT31;55784;50.734;7.086;2023-04-25T04:08:29;6.63;85.70
68801;SHT31;55784;50.734;7.086;2023-04-25T04:10:57;6.66;85.55
68801;SHT31;55784;50.734;7.086;2023-04-25T04:13:22;6.71;85.40
68801;SHT31;55784;50.734;7.086;2023-04-25T04:15:47;6.74;85.29
68801;SHT31;55784;50.734;7.086;2023-04-25T04:18:13;6.81;85.29
68801;SHT31;55784;50.734;7.086;2023-04-25T04:20:38;6.84;85.09
68801;SHT31;55784;50.734;7.086;2023-04-25T04:23:03;6.79;85.31
68801;SHT31;55784;50.734;7.086;2023-04-25T04:25:29;6.87;85.14
68801;SHT31;55784;50.734;7.086;2023-04-25T04:27:55;6.95;84.91
68801;SHT31;55784;50.734;7.086;2023-04-25T04:30:24;6.95;84.91
68801;SHT31;55784;50.734;7.086;2023-04-25T04:32:50;6.87;84.91
68801;SHT31;55784;50.734;7.086;2023-04-25T04:35:15;6.88;84.79
68801;SHT31;55784;50.734;7.086;2023-04-25T04:37:41;6.90;84.88
68801;SHT31;55784;50.734;7.086;2023-04-25T04:40:06;6.92;84.85
68801;SHT31;55784;50.734;7.086;2023-04-25T04:42:32;6.98;84.89
68801;SHT31;55784;50.734;7.086;2023-04-25T04:44:57;7.04;84.66
68801;SHT31;55784;50.734;7.086;2023-04-25T04:47:24;7.02;84.71
68801;SHT31;55784;50.734;7.086;2023-04-25T04:49:50;6.98;84.72
68801;SHT31;55784;50.734;7.086;2023-04-25T04:52:16;7.04;84.83
68801;SHT31;55784;50.734;7.086;2023-04-25T04:54:41;7.08;84.73
68801;SHT31;55784;50.734;7.086;2023-04-25T04:57:07;7.09;84.68
68801;SHT31;55784;50.734;7.086;2023-04-25T04:59:32;7.08;84.73
68801;SHT31;55784;50.734;7.086;2023-04-25T05:01:57;7.11;84.99
68801;SHT31;55784;50.734;7.086;2023-04-25T05:04:22;7.08;85.31
68801;SHT31;55784;50.734;7.086;2023-04-25T05:06:51;7.09;85.56
68801;SHT31;55784;50.734;7.086;2023-04-25T05:09:16;7.09;85.22
68801;SHT31;55784;50.734;7.086;2023-04-25T05:11:41;7.14;85.28
68801;SHT31;55784;50.734;7.086;2023-04-25T05:14:07;7.09;84.95
68801;SHT31;55784;50.734;7.086;2023-04-25T05:16:32;7.11;85.03
68801;SHT31;55784;50.734;7.086;2023-04-25T05:18:57;7.15;84.93
68801;SHT31;55784;50.734;7.086;2023-04-25T05:21:23;7.14;84.66
68801;SHT31;55784;50.734;7.086;2023-04-25T05:23:48;7.21;84.65
68801;SHT31;55784;50.734;7.086;2023-04-25T05:26:13;7.19;84.62
68801;SHT31;55784;50.734;7.086;2023-04-25T05:28:40;7.28;84.51
68801;SHT31;55784;50.734;7.086;2023-04-25T05:31:06;7.31;84.34
68801;SHT31;55784;50.734;7.086;2023-04-25T05:33:32;7.36;84.63
68801;SHT31;55784;50.734;7.086;2023-04-25T05:35:57;7.33;84.54
68801;SHT31;55784;50.734;7.086;2023-04-25T05:38:22;7.38;84.66
68801;SHT31;55784;50.734;7.086;2023-04-25T05:40:48;7.46;84.05
68801;SHT31;55784;50.734;7.086;2023-04-25T05:43:13;7.45;83.79
68801;SHT31;55784;50.734;7.086;2023-04-25T05:45:38;7.52;84.02
68801;SHT31;55784;50.734;7.086;2023-04-25T05:48:03;7.46;83.91
68801;SHT31;55784;50.734;7.086;2023-04-25T05:50:29;7.55;83.88
68801;SHT31;55784;50.734;7.086;2023-04-25T05:52:54;7.59;83.71
68801;SHT31;55784;50.734;7.086;2023-04-25T05:55:19;7.56;83.74
68801;SHT31;55784;50.734;7.086;2023-04-25T05:57:45;7.49;83.88
68801;SHT31;55784;50.734;7.086;2023-04-25T06:00:12;7.53;83.54
68801;SHT31;55784;50.734;7.086;2023-04-25T06:02:38;7.53;83.45
68801;SHT31;55784;50.734;7.086;2023-04-25T06:05:03;7.67;83.34
68801;SHT31;55784;50.734;7.086;2023-04-25T06:07:29;7.83;82.90
68801;SHT31;55784;50.734;7.086;2023-04-25T06:09:55;7.82;82.71
68801;SHT31;55784;50.734;7.086;2023-04-25T06:12:21;7.84;82.63
68801;SHT31;55784;50.734;7.086;2023-04-25T06:14:46;7.97;81.74
68801;SHT31;55784;50.734;7.086;2023-04-25T06:17:11;8.01;82.28
68801;SHT31;55784;50.734;7.086;2023-04-25T06:19:37;7.98;82.34
68801;SHT31;55784;50.734;7.086;2023-04-25T06:22:02;8.17;81.89
68801;SHT31;55784;50.734;7.086;2023-04-25T06:24:28;8.21;81.37
68801;SHT31;55784;50.734;7.086;2023-04-25T06:26:53;8.10;81.84
68801;SHT31;55784;50.734;7.086;2023-04-25T06:29:19;8.08;81.71
68801;SHT31;55784;50.734;7.086;2023-04-25T06:31:44;8.24;81.31
68801;SHT31;55784;50.734;7.086;2023-04-25T06:34:10;8.24;80.52
68801;SHT31;55784;50.734;7.086;2023-04-25T06:36:35;8.20;80.73
68801;SHT31;55784;50.734;7.086;2023-04-25T06:39:00;8.04;80.13
68801;SHT31;55784;50.734;7.086;2023-04-25T06:41:25;8.04;80.08
68801;SHT31;55784;50.734;7.086;2023-04-25T06:43:51;8.06;80.29
68801;SHT31;55784;50.734;7.086;2023-04-25T06:46:16;8.20;80.24
68801;SHT31;55784;50.734;7.086;2023-04-25T06:48:41;8.28;80.02
68801;SHT31;55784;50.734;7.086;2023-04-25T06:51:07;8.44;79.38
68801;SHT31;55784;50.734;7.086;2023-04-25T06:53:32;8.49;78.95
68801;SHT31;55784;50.734;7.086;2023-04-25T06:55:57;8.95;77.72
68801;SHT31;55784;50.734;7.086;2023-04-25T06:58:24;8.98;76.40
68801;SHT31;55784;50.734;7.086;2023-04-25T07:00:51;8.90;76.22
68801;SHT31;55784;50.734;7.086;2023-04-25T07:03:16;8.90;76.49
68801;SHT31;55784;50.734;7.086;2023-04-25T07:05:42;9.18;76.15
68801;SHT31;55784;50.734;7.086;2023-04-25T07:08:07;9.19;75.39
68801;SHT31;55784;50.734;7.086;2023-04-25T07:10:32;8.96;76.17
68801;SHT31;55784;50.734;7.086;2023-04-25T07:12:58;9.22;75.21
68801;SHT31;55784;50.734;7.086;2023-04-25T07:15:23;9.16;75.37
68801;SHT31;55784;50.734;7.086;2023-04-25T07:17:48;8.95;75.22
68801;SHT31;55784;50.734;7.086;2023-04-25T07:20:14;8.83;75.21
68801;SHT31;55784;50.734;7.086;2023-04-25T07:22:39;8.79;74.30
68801;SHT31;55784;50.734;7.086;2023-04-25T07:25:05;8.89;73.80
68801;SHT31;55784;50.734;7.086;2023-04-25T07:27:31;9.00;72.81
68801;SHT31;55784;50.734;7.086;2023-04-25T07:29:56;9.24;71.94
68801;SHT31;55784;50.734;7.086;2023-04-25T07:32:22;9.27;71.89
68801;SHT31;55784;50.734;7.086;2023-04-25T07:34:47;8.96;72.08
68801;SHT31;55784;50.734;7.086;2023-04-25T07:37:13;9.06;72.70
68801;SHT31;55784;50.734;7.086;2023-04-25T07:39:39;9.09;70.72
68801;SHT31;55784;50.734;7.086;2023-04-25T07:42:05;9.23;69.35
68801;SHT31;55784;50.734;7.086;2023-04-25T07:44:33;9.16;69.31
68801;SHT31;55784;50.734;7.086;2023-04-25T07:47:04;9.33;68.73
68801;SHT31;55784;50.734;7.086;2023-04-25T07:49:29;9.40;68.81
68801;SHT31;55784;50.734;7.086;2023-04-25T07:51:55;9.27;66.77
68801;SHT31;55784;50.734;7.086;2023-04-25T07:54:20;9.20;67.22
68801;SHT31;55784;50.734;7.086;2023-04-25T07:56:45;9.70;65.88
68801;SHT31;55784;50.734;7.086;2023-04-25T07:59:10;9.90;67.28
68801;SHT31;55784;50.734;7.086;2023-04-25T08:01:36;9.81;67.08
68801;SHT31;55784;50.734;7.086;2023-04-25T08:04:02;9.67;67.08
68801;SHT31;55784;50.734;7.086;2023-04-25T08:06:27;9.58;66.79
68801;SHT31;55784;50.734;7.086;2023-04-25T08:08:52;9.70;66.36
68801;SHT31;55784;50.734;7.086;2023-04-25T08:11:18;10.02;65.83
68801;SHT31;55784;50.734;7.086;2023-04-25T08:13:43;10.06;65.60
68801;SHT31;55784;50.734;7.086;2023-04-25T08:16:08;10.01;65.12
68801;SHT31;55784;50.734;7.086;2023-04-25T08:18:33;10.29;64.71
68801;SHT31;55784;50.734;7.086;2023-04-25T08:20:59;10.04;64.64
68801;SHT31;55784;50.734;7.086;2023-04-25T08:23:24;9.84;64.99
68801;SHT31;55784;50.734;7.086;2023-04-25T08:25:50;9.88;64.81
68801;SHT31;55784;50.734;7.086;2023-04-25T08:28:15;9.95;65.08
68801;SHT31;55784;50.734;7.086;2023-04-25T08:30:41;10.09;64.75
68801;SHT31;55784;50.734;7.086;2023-04-25T08:33:06;9.94;62.75
68801;SHT31;55784;50.734;7.086;2023-04-25T08:35:32;9.67;63.59
68801;SHT31;55784;50.734;7.086;2023-04-25T08:37:58;9.74;64.57
68801;SHT31;55784;50.734;7.086;2023-04-25T08:40:26;9.73;64.55
68801;SHT31;55784;50.734;7.086;2023-04-25T08:42:54;9.75;65.02
68801;SHT31;55784;50.734;7.086;2023-04-25T08:45:20;9.54;63.96
68801;SHT31;55784;50.734;7.086;2023-04-25T08:47:51;9.51;65.27
68801;SHT31;55784;50.734;7.086;2023-04-25T08:50:17;9.61;66.01
68801;SHT31;55784;50.734;7.086;2023-04-25T08:52:44;9.83;65.35
68801;SHT31;55784;50.734;7.086;2023-04-25T08:55:12;10.05;63.79
68801;SHT31;55784;50.734;7.086;2023-04-25T08:57:40;10.21;63.08
68801;SHT31;55784;50.734;7.086;2023-04-25T09:00:09;10.41;63.01
68801;SHT31;55784;50.734;7.086;2023-04-25T09:02:35;10.36;60.60
68801;SHT31;55784;50.734;7.086;2023-04-25T09:05:02;10.50;60.28
68801;SHT31;55784;50.734;7.086;2023-04-25T09:07:27;10.62;60.09
68801;SHT31;55784;50.734;7.086;2023-04-25T09:09:53;10.89;58.84
68801;SHT31;55784;50.734;7.086;2023-04-25T09:12:19;11.17;58.30
68801;SHT31;55784;50.734;7.086;2023-04-25T09:15:07;10.96;57.76
68801;SHT31;55784;50.734;7.086;2023-04-25T09:17:33;11.03;56.16
68801;SHT31;55784;50.734;7.086;2023-04-25T09:20:09;10.99;56.80
68801;SHT31;55784;50.734;7.086;2023-04-25T09:22:36;10.97;56.07
68801;SHT31;55784;50.734;7.086;2023-04-25T09:25:03;11.24;57.53
68801;SHT31;55784;50.734;7.086;2023-04-25T09:27:29;11.11;58.11
68801;SHT31;55784;50.734;7.086;2023-04-25T09:29:58;11.03;56.78
68801;SHT31;55784;50.734;7.086;2023-04-25T09:32:25;10.73;57.82
68801;SHT31;55784;50.734;7.086;2023-04-25T09:34:56;10.56;58.45
68801;SHT31;55784;50.734;7.086;2023-04-25T09:37:26;10.63;58.43
68801;SHT31;55784;50.734;7.086;2023-04-25T09:39:59;10.55;53.94
68801;SHT31;55784;50.734;7.086;2023-04-25T09:42:26;10.32;53.01
68801;SHT31;55784;50.734;7.086;2023-04-25T09:44:54;10.46;53.15
68801;SHT31;55784;50.734;7.086;2023-04-25T09:47:22;10.67;53.62
68801;SHT31;55784;50.734;7.086;2023-04-25T09:49:49;10.49;52.85
68801;SHT31;55784;50.734;7.086;2023-04-25T09:52:17;10.90;52.32
68801;SHT31;55784;50.734;7.086;2023-04-25T09:54:46;10.70;54.50
68801;SHT31;55784;50.734;7.086;2023-04-25T09:57:16;10.72;53.97
68801;SHT31;55784;50.734;7.086;2023-04-25T09:59:52;10.95;53.53
68801;SHT31;55784;50.734;7.086;2023-04-25T10:02:19;10.84;55.34
68801;SHT31;55784;50.734;7.086;2023-04-25T10:04:55;11.19;55.33
68801;SHT31;55784;50.734;7.086;2023-04-25T10:07:25;11.20;53.23
68801;SHT31;55784;50.734;7.086;2023-04-25T10:09:56;11.07;54.06
68801;SHT31;55784;50.734;7.086;2023-04-25T10:12:24;11.27;54.41
68801;SHT31;55784;50.734;7.086;2023-04-25T10:14:50;11.11;55.15
68801;SHT31;55784;50.734;7.086;2023-04-25T10:17:17;10.86;52.31
68801;SHT31;55784;50.734;7.086;2023-04-25T10:19:43;10.77;53.03
68801;SHT31;55784;50.734;7.086;2023-04-25T10:22:33;10.87;53.57
68801;SHT31;55784;50.734;7.086;2023-04-25T10:25:00;10.99;53.65
68801;SHT31;55784;50.734;7.086;2023-04-25T10:27:29;10.81;54.16
68801;SHT31;55784;50.734;7.086;2023-04-25T10:30:07;11.06;54.66
68801;SHT31;55784;50.734;7.086;2023-04-25T10:32:36;11.00;54.29
68801;SHT31;55784;50.734;7.086;2023-04-25T10:35:16;11.07;55.21
68801;SHT31;55784;50.734;7.086;2023-04-25T10:40:28;10.80;56.05
68801;SHT31;55784;50.734;7.086;2023-04-25T10:42:54;10.84;56.85
68801;SHT31;55784;50.734;7.086;2023-04-25T10:45:20;10.92;56.84
68801;SHT31;55784;50.734;7.086;2023-04-25T10:47:46;10.89;57.10
68801;SHT31;55784;50.734;7.086;2023-04-25T10:50:12;10.66;57.95
68801;SHT31;55784;50.734;7.086;2023-04-25T10:52:39;10.63;56.78
68801;SHT31;55784;50.734;7.086;2023-04-25T10:55:08;10.42;57.76
68801;SHT31;55784;50.734;7.086;2023-04-25T10:57:44;10.28;58.00
68801;SHT31;55784;50.734;7.086;2023-04-25T11:00:19;10.22;57.62
68801;SHT31;55784;50.734;7.086;2023-04-25T11:05:17;10.50;58.23
68801;SHT31;55784;50.734;7.086;2023-04-25T11:07:54;10.15;57.65
68801;SHT31;55784;50.734;7.086;2023-04-25T11:10:28;10.25;58.39
68801;SHT31;55784;50.734;7.086;2023-04-25T11:12:54;10.57;58.17
68801;SHT31;55784;50.734;7.086;2023-04-25T11:15:20;10.67;57.08
68801;SHT31;55784;50.734;7.086;2023-04-25T11:17:45;10.99;56.81
68801;SHT31;55784;50.734;7.086;2023-04-25T11:20:12;11.24;55.78
68801;SHT31;55784;50.734;7.086;2023-04-25T11:22:40;11.67;55.02
68801;SHT31;55784;50.734;7.086;2023-04-25T11:25:10;11.61;56.49
68801;SHT31;55784;50.734;7.086;2023-04-25T11:27:57;11.30;55.99
68801;SHT31;55784;50.734;7.086;2023-04-25T11:30:23;11.41;56.42
68801;SHT31;55784;50.734;7.086;2023-04-25T11:32:49;11.52;56.89
68801;SHT31;55784;50.734;7.086;2023-04-25T11:35:15;11.06;56.89
68801;SHT31;55784;50.734;7.086;2023-04-25T11:37:41;10.90;57.64
68801;SHT31;55784;50.734;7.086;2023-04-25T11:40:08;10.69;57.17
68801;SHT31;55784;50.734;7.086;2023-04-25T11:42:36;10.53;58.68
68801;SHT31;55784;50.734;7.086;2023-04-25T11:45:03;10.53;59.07
68801;SHT31;55784;50.734;7.086;2023-04-25T11:47:30;10.53;59.22
68801;SHT31;55784;50.734;7.086;2023-04-25T11:49:58;10.34;58.99
68801;SHT31;55784;50.734;7.086;2023-04-25T11:52:23;10.36;59.65
68801;SHT31;55784;50.734;7.086;2023-04-25T11:54:49;10.38;59.37
68801;SHT31;55784;50.734;7.086;2023-04-25T11:57:14;10.42;59.89
68801;SHT31;55784;50.734;7.086;2023-04-25T11:59:39;10.32;59.71
68801;SHT31;55784;50.734;7.086;2023-04-25T12:02:05;10.38;59.23
68801;SHT31;55784;50.734;7.086;2023-04-25T12:04:32;10.38;58.23
68801;SHT31;55784;50.734;7.086;2023-04-25T12:06:57;10.45;57.25
68801;SHT31;55784;50.734;7.086;2023-04-25T12:09:31;10.76;57.84
68801;SHT31;55784;50.734;7.086;2023-04-25T12:11:58;10.90;55.23
68801;SHT31;55784;50.734;7.086;2023-04-25T12:14:28;10.73;54.00
68801;SHT31;55784;50.734;7.086;2023-04-25T12:16:56;11.11;52.55
68801;SHT31;55784;50.734;7.086;2023-04-25T12:19:23;11.11;52.73
68801;SHT31;55784;50.734;7.086;2023-04-25T12:21:49;11.24;51.75
68801;SHT31;55784;50.734;7.086;2023-04-25T12:24:23;11.27;52.13
68801;SHT31;55784;50.734;7.086;2023-04-25T12:27:02;11.20;52.49
68801;SHT31;55784;50.734;7.086;2023-04-25T12:29:30;11.28;52.98
68801;SHT31;55784;50.734;7.086;2023-04-25T12:31:56;11.31;53.11
68801;SHT31;55784;50.734;7.086;2023-04-25T12:34:22;11.23;53.26
68801;SHT31;55784;50.734;7.086;2023-04-25T12:36:49;11.20;53.68
68801;SHT31;55784;50.734;7.086;2023-04-25T12:39:15;11.32;53.58
68801;SHT31;55784;50.734;7.086;2023-04-25T12:41:41;11.23;53.99
68801;SHT31;55784;50.734;7.086;2023-04-25T12:44:06;11.00;54.10
68801;SHT31;55784;50.734;7.086;2023-04-25T12:46:32;10.92;55.33
68801;SHT31;55784;50.734;7.086;2023-04-25T12:48:57;10.95;54.74
68801;SHT31;55784;50.734;7.086;2023-04-25T12:51:22;11.35;54.48
68801;SHT31;55784;50.734;7.086;2023-04-25T12:53:50;11.58;53.87
68801;SHT31;55784;50.734;7.086;2023-04-25T12:56:15;11.85;54.39
68801;SHT31;55784;50.734;7.086;2023-04-25T12:58:41;12.30;52.77
68801;SHT31;55784;50.734;7.086;2023-04-25T13:01:09;12.61;51.54
68801;SHT31;55784;50.734;7.086;2023-04-25T13:03:34;12.44;50.54
68801;SHT31;55784;50.734;7.086;2023-04-25T13:05:59;12.29;50.11
68801;SHT31;55784;50.734;7.086;2023-04-25T13:08:25;12.12;51.19
68801;SHT31;55784;50.734;7.086;2023-04-25T13:10:51;12.28;51.88
68801;SHT31;55784;50.734;7.086;2023-04-25T13:13:16;12.19;53.07
68801;SHT31;55784;50.734;7.086;2023-04-25T13:15:42;12.46;52.75
68801;SHT31;55784;50.734;7.086;2023-04-25T13:18:07;12.19;48.48
68801;SHT31;55784;50.734;7.086;2023-04-25T13:20:33;11.72;49.07
68801;SHT31;55784;50.734;7.086;2023-04-25T13:22:58;11.71;49.50
68801;SHT31;55784;50.734;7.086;2023-04-25T13:25:24;11.70;50.95
68801;SHT31;55784;50.734;7.086;2023-04-25T13:27:50;11.74;51.99
68801;SHT31;55784;50.734;7.086;2023-04-25T13:30:15;11.74;52.75
68801;SHT31;55784;50.734;7.086;2023-04-25T13:32:41;11.61;51.72
68801;SHT31;55784;50.734;7.086;2023-04-25T13:35:11;11.37;52.00
68801;SHT31;55784;50.734;7.086;2023-04-25T13:37:37;11.19;52.83
68801;SHT31;55784;50.734;7.086;2023-04-25T13:40:06;11.04;54.27
68801;SHT31;55784;50.734;7.086;2023-04-25T13:42:33;11.11;55.28
68801;SHT31;55784;50.734;7.086;2023-04-25T13:44:59;10.81;55.70
68801;SHT31;55784;50.734;7.086;2023-04-25T13:47:25;10.76;57.01
68801;SHT31;55784;50.734;7.086;2023-04-25T13:49:51;10.57;59.42
68801;SHT31;55784;50.734;7.086;2023-04-25T13:52:16;10.48;60.79
68801;SHT31;55784;50.734;7.086;2023-04-25T13:54:42;10.44;60.44
68801;SHT31;55784;50.734;7.086;2023-04-25T13:57:07;10.62;61.00
68801;SHT31;55784;50.734;7.086;2023-04-25T13:59:33;10.79;59.17
68801;SHT31;55784;50.734;7.086;2023-04-25T14:01:58;11.07;56.97
68801;SHT31;55784;50.734;7.086;2023-04-25T14:04:23;11.14;55.72
68801;SHT31;55784;50.734;7.086;2023-04-25T14:06:50;11.26;54.62
68801;SHT31;55784;50.734;7.086;2023-04-25T14:09:16;11.28;54.01
68801;SHT31;55784;50.734;7.086;2023-04-25T14:11:41;11.26;54.30
68801;SHT31;55784;50.734;7.086;2023-04-25T14:14:07;11.47;53.89
68801;SHT31;55784;50.734;7.086;2023-04-25T14:16:32;11.52;53.11
68801;SHT31;55784;50.734;7.086;2023-04-25T14:18:58;11.34;52.70
68801;SHT31;55784;50.734;7.086;2023-04-25T14:21:24;11.44;52.92
68801;SHT31;55784;50.734;7.086;2023-04-25T14:23:49;11.52;52.49
68801;SHT31;55784;50.734;7.086;2023-04-25T14:26:14;11.62;51.41
68801;SHT31;55784;50.734;7.086;2023-04-25T14:28:40;11.70;52.13
68801;SHT31;55784;50.734;7.086;2023-04-25T14:31:06;11.71;52.10
68801;SHT31;55784;50.734;7.086;2023-04-25T14:33:31;11.51;51.68
68801;SHT31;55784;50.734;7.086;2023-04-25T14:35:56;11.62;52.52
68801;SHT31;55784;50.734;7.086;2023-04-25T14:38:22;11.52;53.26
68801;SHT31;55784;50.734;7.086;2023-04-25T14:40:51;11.82;51.34
68801;SHT31;55784;50.734;7.086;2023-04-25T14:43:17;11.68;51.64
68801;SHT31;55784;50.734;7.086;2023-04-25T14:45:42;11.95;51.81
68801;SHT31;55784;50.734;7.086;2023-04-25T14:48:08;12.06;50.69
68801;SHT31;55784;50.734;7.086;2023-04-25T14:50:33;12.12;50.90
68801;SHT31;55784;50.734;7.086;2023-04-25T14:52:59;12.09;49.93
68801;SHT31;55784;50.734;7.086;2023-04-25T14:55:26;11.91;50.00
68801;SHT31;55784;50.734;7.086;2023-04-25T14:57:53;11.98;49.92
68801;SHT31;55784;50.734;7.086;2023-04-25T15:00:19;11.78;48.30
68801;SHT31;55784;50.734;7.086;2023-04-25T15:02:45;11.93;48.83
68801;SHT31;55784;50.734;7.086;2023-04-25T15:05:12;11.75;47.79
68801;SHT31;55784;50.734;7.086;2023-04-25T15:07:37;11.77;47.97
68801;SHT31;55784;50.734;7.086;2023-04-25T15:10:04;11.70;48.22
68801;SHT31;55784;50.734;7.086;2023-04-25T15:12:30;11.58;48.79
68801;SHT31;55784;50.734;7.086;2023-04-25T15:14:56;11.45;49.44
68801;SHT31;55784;50.734;7.086;2023-04-25T15:17:21;11.75;49.61
68801;SHT31;55784;50.734;7.086;2023-04-25T15:19:47;11.61;49.00
68801;SHT31;55784;50.734;7.086;2023-04-25T15:22:12;11.52;47.61
68801;SHT31;55784;50.734;7.086;2023-04-25T15:24:37;11.45;46.81
68801;SHT31;55784;50.734;7.086;2023-04-25T15:27:03;11.57;46.31
68801;SHT31;55784;50.734;7.086;2023-04-25T15:29:29;11.72;46.44
68801;SHT31;55784;50.734;7.086;2023-04-25T15:31:55;11.55;47.66
68801;SHT31;55784;50.734;7.086;2023-04-25T15:34:20;11.64;48.08
68801;SHT31;55784;50.734;7.086;2023-04-25T15:36:46;11.71;48.80
68801;SHT31;55784;50.734;7.086;2023-04-25T15:39:11;11.31;47.24